Avon, CO (81620)

11:14 AM MST on February 12, 2016 (GMT -0700)
Beaver Creek | | Change Station
CLOSE
Current Station
Personal Weather Station
Location: Avon, CO
Elevation: 8156 ft
Nearby Weather Stations

Elev 8156 ft 39.61 °N, 106.52 °W | Updated 10 minutes ago

Clear
Clear
36.9 °F
Feels Like 37 °F
N
2.7
Wind Variable Wind from NNE

Today
High -- | Low -- °F
--% Chance of Precip.
Yesterday
High -- | Low -- °F
Precip. -- in
Pressure 30.50 in
Visibility 10.0 miles
Clouds Clear
Windchill 37 °F
Dew Point 20 °F
Humidity 51%
Rainfall 0.00 in
Snow Depth Not available.
7:02 AM 5:38 PM
Waxing Crescent, 22% visible
METAR KEGE 121750Z 00000KT 10SM SKC M01/M08 A3050
Pressure 30.50 in
Visibility 10.0 miles
Clouds Clear
Windchill 37 °F
Dew Point 20 °F
Humidity 51%
Rainfall 0.00 in
Snow Depth Not available.
7:02 AM 5:38 PM
Waxing Crescent, 22% visible
METAR KEGE 121750Z 00000KT 10SM SKC M01/M08 A3050

10-Day Weather Forecast

Almanac

Astronomy

Feb. 12, 2016 Rise Set
Actual Time
Civil Twilight
Nautical Twilight
Astronomical Twilight
Moon
Length of Visible Light
Length of Day
Tomorrow will be .
, % of the Moon is Illuminated

Today's Extremes

State Highs State Lows

Community

WunderPhotos

Upload Photos

1,892,359 photos uploaded!

WunderBlog® & News

Nearby

Air Quality

  Air Quality AQ Index Pollutant
Not available.

Snow Depth

Station Depth Elevation

Earthquake Activity

City Distance Mag. Time & Date
Minimum magnitude displayed is 2.5.

Coastal Water Temperatures

Place Temperature

Stations

Nearby Weather Stations

Station Location Temp. Windchill Dew Point Humidity Wind Precip. Elev Updated Type
                   

Watches & Warnings

There are currently no watches in effect.